sensor_id;sensor_type;location;lat;lon;timestamp;P1;durP1;ratioP1;P2;durP2;ratioP2
35917;SDS011;22011;59.912;30.300;2022-10-17T00:01:20;5.28;;;4.63;;
35917;SDS011;22011;59.912;30.300;2022-10-17T00:03:47;5.93;;;4.97;;
35917;SDS011;22011;59.912;30.300;2022-10-17T00:06:15;7.30;;;5.45;;
35917;SDS011;22011;59.912;30.300;2022-10-17T00:08:42;6.55;;;5.13;;
35917;SDS011;22011;59.912;30.300;2022-10-17T00:11:12;9.25;;;5.68;;
35917;SDS011;22011;59.912;30.300;2022-10-17T00:13:44;7.65;;;5.90;;
35917;SDS011;22011;59.912;30.300;2022-10-17T00:16:12;8.47;;;7.07;;
35917;SDS011;22011;59.912;30.300;2022-10-17T00:18:40;8.45;;;6.32;;
35917;SDS011;22011;59.912;30.300;2022-10-17T00:21:13;10.40;;;5.80;;
35917;SDS011;22011;59.912;30.300;2022-10-17T00:23:41;9.07;;;6.55;;
35917;SDS011;22011;59.912;30.300;2022-10-17T00:26:09;13.65;;;7.75;;
35917;SDS011;22011;59.912;30.300;2022-10-17T00:28:37;13.40;;;8.00;;
35917;SDS011;22011;59.912;30.300;2022-10-17T00:31:06;12.32;;;8.18;;
35917;SDS011;22011;59.912;30.300;2022-10-17T00:33:34;9.63;;;8.00;;
35917;SDS011;22011;59.912;30.300;2022-10-17T00:36:02;13.00;;;8.77;;
35917;SDS011;22011;59.912;30.300;2022-10-17T00:38:31;11.03;;;8.50;;
35917;SDS011;22011;59.912;30.300;2022-10-17T00:40:58;12.80;;;9.25;;
35917;SDS011;22011;59.912;30.300;2022-10-17T00:43:26;11.13;;;8.23;;
35917;SDS011;22011;59.912;30.300;2022-10-17T00:45:54;9.82;;;7.93;;
35917;SDS011;22011;59.912;30.300;2022-10-17T00:48:23;9.18;;;7.40;;
35917;SDS011;22011;59.912;30.300;2022-10-17T00:50:51;7.20;;;5.43;;
35917;SDS011;22011;59.912;30.300;2022-10-17T00:53:19;6.72;;;5.40;;
35917;SDS011;22011;59.912;30.300;2022-10-17T00:55:48;6.97;;;5.65;;
35917;SDS011;22011;59.912;30.300;2022-10-17T00:58:19;7.07;;;5.40;;
35917;SDS011;22011;59.912;30.300;2022-10-17T01:00:47;7.22;;;5.60;;
35917;SDS011;22011;59.912;30.300;2022-10-17T01:03:15;7.45;;;4.60;;
35917;SDS011;22011;59.912;30.300;2022-10-17T01:05:44;6.45;;;4.60;;
35917;SDS011;22011;59.912;30.300;2022-10-17T01:08:12;6.55;;;4.97;;
35917;SDS011;22011;59.912;30.300;2022-10-17T01:10:43;4.70;;;4.20;;
35917;SDS011;22011;59.912;30.300;2022-10-17T01:13:20;4.60;;;3.65;;
35917;SDS011;22011;59.912;30.300;2022-10-17T01:15:55;4.68;;;3.83;;
35917;SDS011;22011;59.912;30.300;2022-10-17T01:18:31;4.25;;;3.60;;
35917;SDS011;22011;59.912;30.300;2022-10-17T01:21:17;4.80;;;3.58;;
35917;SDS011;22011;59.912;30.300;2022-10-17T01:27:24;2.65;;;2.45;;
35917;SDS011;22011;59.912;30.300;2022-10-17T01:33:21;3.35;;;2.95;;
35917;SDS011;22011;59.912;30.300;2022-10-17T01:35:58;4.45;;;2.90;;
35917;SDS011;22011;59.912;30.300;2022-10-17T01:38:33;3.63;;;2.40;;
35917;SDS011;22011;59.912;30.300;2022-10-17T01:41:04;7.50;;;2.60;;
35917;SDS011;22011;59.912;30.300;2022-10-17T01:43:38;3.53;;;2.67;;
35917;SDS011;22011;59.912;30.300;2022-10-17T01:46:11;3.17;;;2.03;;
35917;SDS011;22011;59.912;30.300;2022-10-17T01:48:48;4.85;;;2.63;;
35917;SDS011;22011;59.912;30.300;2022-10-17T01:51:16;4.13;;;2.53;;
35917;SDS011;22011;59.912;30.300;2022-10-17T01:53:49;3.42;;;2.63;;
35917;SDS011;22011;59.912;30.300;2022-10-17T01:56:21;2.67;;;2.40;;
35917;SDS011;22011;59.912;30.300;2022-10-17T01:58:51;4.45;;;2.20;;
35917;SDS011;22011;59.912;30.300;2022-10-17T02:01:23;4.28;;;2.38;;
35917;SDS011;22011;59.912;30.300;2022-10-17T02:03:57;5.07;;;2.80;;
35917;SDS011;22011;59.912;30.300;2022-10-17T02:06:27;3.20;;;2.60;;
35917;SDS011;22011;59.912;30.300;2022-10-17T02:08:55;5.70;;;2.78;;
35917;SDS011;22011;59.912;30.300;2022-10-17T02:11:23;2.78;;;2.28;;
35917;SDS011;22011;59.912;30.300;2022-10-17T02:14:05;4.05;;;2.72;;
35917;SDS011;22011;59.912;30.300;2022-10-17T02:16:41;4.25;;;2.55;;
35917;SDS011;22011;59.912;30.300;2022-10-17T02:19:21;4.05;;;2.50;;
35917;SDS011;22011;59.912;30.300;2022-10-17T02:22:01;4.55;;;2.38;;
35917;SDS011;22011;59.912;30.300;2022-10-17T02:24:39;3.78;;;2.75;;
35917;SDS011;22011;59.912;30.300;2022-10-17T02:27:15;4.57;;;2.10;;
35917;SDS011;22011;59.912;30.300;2022-10-17T02:29:52;2.78;;;1.90;;
35917;SDS011;22011;59.912;30.300;2022-10-17T02:32:23;3.38;;;1.85;;
35917;SDS011;22011;59.912;30.300;2022-10-17T02:34:56;5.75;;;2.03;;
35917;SDS011;22011;59.912;30.300;2022-10-17T02:37:28;3.20;;;1.90;;
35917;SDS011;22011;59.912;30.300;2022-10-17T02:39:59;3.10;;;1.60;;
35917;SDS011;22011;59.912;30.300;2022-10-17T02:42:29;3.50;;;1.40;;
35917;SDS011;22011;59.912;30.300;2022-10-17T02:44:58;2.60;;;1.90;;
35917;SDS011;22011;59.912;30.300;2022-10-17T02:52:27;3.38;;;2.35;;
35917;SDS011;22011;59.912;30.300;2022-10-17T02:55:02;5.95;;;2.05;;
35917;SDS011;22011;59.912;30.300;2022-10-17T02:57:35;5.57;;;2.05;;
35917;SDS011;22011;59.912;30.300;2022-10-17T03:00:07;6.25;;;1.77;;
35917;SDS011;22011;59.912;30.300;2022-10-17T03:02:39;2.65;;;1.90;;
35917;SDS011;22011;59.912;30.300;2022-10-17T03:05:11;2.78;;;2.20;;
35917;SDS011;22011;59.912;30.300;2022-10-17T03:07:40;6.70;;;2.30;;
35917;SDS011;22011;59.912;30.300;2022-10-17T03:10:08;4.72;;;2.47;;
35917;SDS011;22011;59.912;30.300;2022-10-17T03:12:36;6.32;;;2.17;;
35917;SDS011;22011;59.912;30.300;2022-10-17T03:15:04;5.30;;;2.60;;
35917;SDS011;22011;59.912;30.300;2022-10-17T03:17:33;5.63;;;2.70;;
35917;SDS011;22011;59.912;30.300;2022-10-17T03:20:01;5.13;;;3.03;;
35917;SDS011;22011;59.912;30.300;2022-10-17T03:22:30;4.53;;;2.75;;
35917;SDS011;22011;59.912;30.300;2022-10-17T03:25:01;4.00;;;2.75;;
35917;SDS011;22011;59.912;30.300;2022-10-17T03:27:28;4.72;;;2.83;;
35917;SDS011;22011;59.912;30.300;2022-10-17T03:29:56;6.10;;;3.10;;
35917;SDS011;22011;59.912;30.300;2022-10-17T03:32:24;5.82;;;2.63;;
35917;SDS011;22011;59.912;30.300;2022-10-17T03:34:51;5.05;;;2.45;;
35917;SDS011;22011;59.912;30.300;2022-10-17T03:37:19;4.30;;;2.40;;
35917;SDS011;22011;59.912;30.300;2022-10-17T03:39:48;4.75;;;2.70;;
35917;SDS011;22011;59.912;30.300;2022-10-17T03:42:15;3.22;;;1.95;;
35917;SDS011;22011;59.912;30.300;2022-10-17T03:44:43;4.15;;;2.15;;
35917;SDS011;22011;59.912;30.300;2022-10-17T03:47:10;2.75;;;1.60;;
35917;SDS011;22011;59.912;30.300;2022-10-17T03:49:38;4.68;;;2.20;;
35917;SDS011;22011;59.912;30.300;2022-10-17T03:52:09;5.40;;;2.60;;
35917;SDS011;22011;59.912;30.300;2022-10-17T03:54:37;5.38;;;1.83;;
35917;SDS011;22011;59.912;30.300;2022-10-17T03:57:06;3.75;;;1.60;;
35917;SDS011;22011;59.912;30.300;2022-10-17T03:59:35;3.70;;;1.48;;
35917;SDS011;22011;59.912;30.300;2022-10-17T04:02:09;3.65;;;1.63;;
35917;SDS011;22011;59.912;30.300;2022-10-17T04:04:36;4.65;;;1.38;;
35917;SDS011;22011;59.912;30.300;2022-10-17T04:07:04;4.72;;;1.77;;
35917;SDS011;22011;59.912;30.300;2022-10-17T04:09:34;8.43;;;2.10;;
35917;SDS011;22011;59.912;30.300;2022-10-17T04:12:11;2.95;;;1.70;;
35917;SDS011;22011;59.912;30.300;2022-10-17T04:14:39;3.27;;;1.87;;
35917;SDS011;22011;59.912;30.300;2022-10-17T04:17:06;5.25;;;2.10;;
35917;SDS011;22011;59.912;30.300;2022-10-17T04:19:34;3.72;;;1.80;;
35917;SDS011;22011;59.912;30.300;2022-10-17T04:22:02;6.15;;;2.20;;
35917;SDS011;22011;59.912;30.300;2022-10-17T04:24:33;3.92;;;1.95;;
35917;SDS011;22011;59.912;30.300;2022-10-17T04:29:53;4.50;;;1.83;;
35917;SDS011;22011;59.912;30.300;2022-10-17T04:35:05;4.95;;;2.17;;
35917;SDS011;22011;59.912;30.300;2022-10-17T04:37:33;13.95;;;3.22;;
35917;SDS011;22011;59.912;30.300;2022-10-17T04:40:07;6.45;;;2.42;;
35917;SDS011;22011;59.912;30.300;2022-10-17T04:42:37;8.20;;;2.90;;
35917;SDS011;22011;59.912;30.300;2022-10-17T04:45:07;5.80;;;2.20;;
35917;SDS011;22011;59.912;30.300;2022-10-17T04:47:36;3.15;;;1.48;;
35917;SDS011;22011;59.912;30.300;2022-10-17T04:50:04;3.85;;;1.75;;
35917;SDS011;22011;59.912;30.300;2022-10-17T04:55:03;4.03;;;1.30;;
35917;SDS011;22011;59.912;30.300;2022-10-17T04:57:33;3.28;;;1.08;;
35917;SDS011;22011;59.912;30.300;2022-10-17T05:00:10;3.05;;;1.35;;
35917;SDS011;22011;59.912;30.300;2022-10-17T05:03:04;4.53;;;1.60;;
35917;SDS011;22011;59.912;30.300;2022-10-17T05:05:32;5.85;;;2.47;;
35917;SDS011;22011;59.912;30.300;2022-10-17T05:08:01;6.22;;;2.28;;
35917;SDS011;22011;59.912;30.300;2022-10-17T05:10:34;6.63;;;2.95;;
35917;SDS011;22011;59.912;30.300;2022-10-17T05:13:03;8.45;;;4.95;;
35917;SDS011;22011;59.912;30.300;2022-10-17T05:15:33;7.50;;;4.80;;
35917;SDS011;22011;59.912;30.300;2022-10-17T05:18:02;5.32;;;2.80;;
35917;SDS011;22011;59.912;30.300;2022-10-17T05:20:30;4.40;;;2.20;;
35917;SDS011;22011;59.912;30.300;2022-10-17T05:22:59;7.40;;;3.45;;
35917;SDS011;22011;59.912;30.300;2022-10-17T05:25:32;4.88;;;2.42;;
35917;SDS011;22011;59.912;30.300;2022-10-17T05:27:59;5.35;;;2.00;;
35917;SDS011;22011;59.912;30.300;2022-10-17T05:30:27;7.22;;;1.70;;
35917;SDS011;22011;59.912;30.300;2022-10-17T05:33:00;8.07;;;1.65;;
35917;SDS011;22011;59.912;30.300;2022-10-17T05:35:28;3.72;;;1.52;;
35917;SDS011;22011;59.912;30.300;2022-10-17T05:37:56;5.15;;;1.63;;
35917;SDS011;22011;59.912;30.300;2022-10-17T05:40:25;4.90;;;1.42;;
35917;SDS011;22011;59.912;30.300;2022-10-17T05:42:53;4.80;;;1.65;;
35917;SDS011;22011;59.912;30.300;2022-10-17T05:45:22;5.32;;;1.20;;
35917;SDS011;22011;59.912;30.300;2022-10-17T05:47:50;3.55;;;1.55;;
35917;SDS011;22011;59.912;30.300;2022-10-17T05:50:19;5.22;;;1.20;;
35917;SDS011;22011;59.912;30.300;2022-10-17T05:55:54;4.57;;;1.30;;
35917;SDS011;22011;59.912;30.300;2022-10-17T05:58:22;3.65;;;1.45;;
35917;SDS011;22011;59.912;30.300;2022-10-17T06:00:57;5.10;;;1.40;;
35917;SDS011;22011;59.912;30.300;2022-10-17T06:03:26;3.50;;;1.42;;
35917;SDS011;22011;59.912;30.300;2022-10-17T06:05:55;3.45;;;1.08;;
35917;SDS011;22011;59.912;30.300;2022-10-17T06:08:28;3.38;;;1.27;;
35917;SDS011;22011;59.912;30.300;2022-10-17T06:10:56;5.15;;;1.58;;
35917;SDS011;22011;59.912;30.300;2022-10-17T06:13:23;4.75;;;1.13;;
35917;SDS011;22011;59.912;30.300;2022-10-17T06:15:52;3.70;;;1.58;;
35917;SDS011;22011;59.912;30.300;2022-10-17T06:18:19;8.13;;;2.33;;
35917;SDS011;22011;59.912;30.300;2022-10-17T06:20:47;4.00;;;1.83;;
35917;SDS011;22011;59.912;30.300;2022-10-17T06:25:59;3.00;;;1.30;;
35917;SDS011;22011;59.912;30.300;2022-10-17T06:28:28;5.43;;;1.55;;
35917;SDS011;22011;59.912;30.300;2022-10-17T06:30:57;3.33;;;1.15;;
35917;SDS011;22011;59.912;30.300;2022-10-17T06:33:24;6.40;;;1.70;;
35917;SDS011;22011;59.912;30.300;2022-10-17T06:35:52;4.47;;;2.13;;
35917;SDS011;22011;59.912;30.300;2022-10-17T06:38:24;3.88;;;1.27;;
35917;SDS011;22011;59.912;30.300;2022-10-17T06:40:54;4.55;;;1.38;;
35917;SDS011;22011;59.912;30.300;2022-10-17T06:43:29;5.85;;;1.00;;
35917;SDS011;22011;59.912;30.300;2022-10-17T06:46:17;5.22;;;2.00;;
35917;SDS011;22011;59.912;30.300;2022-10-17T06:49:05;7.10;;;1.60;;
35917;SDS011;22011;59.912;30.300;2022-10-17T06:51:47;4.63;;;1.92;;
35917;SDS011;22011;59.912;30.300;2022-10-17T06:54:20;7.90;;;1.95;;
35917;SDS011;22011;59.912;30.300;2022-10-17T06:57:05;4.57;;;1.48;;
35917;SDS011;22011;59.912;30.300;2022-10-17T06:59:49;4.85;;;1.40;;
35917;SDS011;22011;59.912;30.300;2022-10-17T07:02:21;3.03;;;1.40;;
35917;SDS011;22011;59.912;30.300;2022-10-17T07:04:50;4.50;;;1.02;;
35917;SDS011;22011;59.912;30.300;2022-10-17T07:07:17;8.27;;;1.48;;
35917;SDS011;22011;59.912;30.300;2022-10-17T07:09:46;7.57;;;1.73;;
35917;SDS011;22011;59.912;30.300;2022-10-17T07:12:16;5.22;;;1.58;;
35917;SDS011;22011;59.912;30.300;2022-10-17T07:14:44;3.30;;;1.35;;
35917;SDS011;22011;59.912;30.300;2022-10-17T07:17:12;3.28;;;1.65;;
35917;SDS011;22011;59.912;30.300;2022-10-17T07:19:41;6.45;;;1.67;;
35917;SDS011;22011;59.912;30.300;2022-10-17T07:22:10;3.78;;;1.15;;
35917;SDS011;22011;59.912;30.300;2022-10-17T07:24:42;5.93;;;1.98;;
35917;SDS011;22011;59.912;30.300;2022-10-17T07:27:26;5.70;;;1.70;;
35917;SDS011;22011;59.912;30.300;2022-10-17T07:29:54;5.47;;;1.92;;
35917;SDS011;22011;59.912;30.300;2022-10-17T07:32:36;5.13;;;2.03;;
35917;SDS011;22011;59.912;30.300;2022-10-17T07:35:05;4.43;;;1.40;;
35917;SDS011;22011;59.912;30.300;2022-10-17T07:37:33;7.97;;;1.65;;
35917;SDS011;22011;59.912;30.300;2022-10-17T07:40:01;5.45;;;1.60;;
35917;SDS011;22011;59.912;30.300;2022-10-17T07:42:30;5.18;;;2.45;;
35917;SDS011;22011;59.912;30.300;2022-10-17T07:44:58;5.97;;;2.20;;
35917;SDS011;22011;59.912;30.300;2022-10-17T07:47:27;5.82;;;1.40;;
35917;SDS011;22011;59.912;30.300;2022-10-17T07:49:55;9.10;;;1.48;;
35917;SDS011;22011;59.912;30.300;2022-10-17T07:52:23;4.30;;;1.45;;
35917;SDS011;22011;59.912;30.300;2022-10-17T07:54:51;4.80;;;1.27;;
35917;SDS011;22011;59.912;30.300;2022-10-17T07:57:18;5.38;;;1.27;;
35917;SDS011;22011;59.912;30.300;2022-10-17T07:59:47;3.95;;;1.40;;
35917;SDS011;22011;59.912;30.300;2022-10-17T08:02:17;4.93;;;1.20;;
35917;SDS011;22011;59.912;30.300;2022-10-17T08:04:48;4.25;;;1.42;;
35917;SDS011;22011;59.912;30.300;2022-10-17T08:07:16;2.30;;;0.95;;
35917;SDS011;22011;59.912;30.300;2022-10-17T08:09:44;4.43;;;1.52;;
35917;SDS011;22011;59.912;30.300;2022-10-17T08:12:13;5.43;;;1.73;;
35917;SDS011;22011;59.912;30.300;2022-10-17T08:14:41;2.60;;;1.30;;
35917;SDS011;22011;59.912;30.300;2022-10-17T08:17:10;2.88;;;0.95;;
35917;SDS011;22011;59.912;30.300;2022-10-17T08:19:38;5.70;;;1.00;;
35917;SDS011;22011;59.912;30.300;2022-10-17T08:22:06;2.65;;;0.95;;
35917;SDS011;22011;59.912;30.300;2022-10-17T08:24:34;2.33;;;0.90;;
35917;SDS011;22011;59.912;30.300;2022-10-17T08:27:01;3.90;;;1.33;;
35917;SDS011;22011;59.912;30.300;2022-10-17T08:29:36;4.25;;;1.35;;
35917;SDS011;22011;59.912;30.300;2022-10-17T08:32:03;6.43;;;1.70;;
35917;SDS011;22011;59.912;30.300;2022-10-17T08:34:32;5.10;;;1.73;;
35917;SDS011;22011;59.912;30.300;2022-10-17T08:37:00;3.13;;;1.35;;
35917;SDS011;22011;59.912;30.300;2022-10-17T08:39:27;3.08;;;1.00;;
35917;SDS011;22011;59.912;30.300;2022-10-17T08:41:58;2.95;;;1.00;;
35917;SDS011;22011;59.912;30.300;2022-10-17T08:44:43;3.40;;;0.90;;
35917;SDS011;22011;59.912;30.300;2022-10-17T08:47:20;1.63;;;0.63;;
35917;SDS011;22011;59.912;30.300;2022-10-17T08:49:55;2.50;;;0.60;;
35917;SDS011;22011;59.912;30.300;2022-10-17T08:52:28;2.88;;;1.30;;
35917;SDS011;22011;59.912;30.300;2022-10-17T08:55:04;4.03;;;1.30;;
35917;SDS011;22011;59.912;30.300;2022-10-17T08:57:40;3.60;;;0.65;;
35917;SDS011;22011;59.912;30.300;2022-10-17T09:00:11;2.80;;;0.73;;
35917;SDS011;22011;59.912;30.300;2022-10-17T09:02:46;2.05;;;1.15;;
35917;SDS011;22011;59.912;30.300;2022-10-17T09:05:29;3.85;;;1.10;;
35917;SDS011;22011;59.912;30.300;2022-10-17T09:08:10;2.42;;;0.98;;
35917;SDS011;22011;59.912;30.300;2022-10-17T09:10:51;6.38;;;1.30;;
35917;SDS011;22011;59.912;30.300;2022-10-17T09:16:20;3.50;;;1.30;;
35917;SDS011;22011;59.912;30.300;2022-10-17T09:19:03;5.80;;;2.00;;
35917;SDS011;22011;59.912;30.300;2022-10-17T09:21:41;3.97;;;1.58;;
35917;SDS011;22011;59.912;30.300;2022-10-17T09:24:13;3.28;;;0.90;;
35917;SDS011;22011;59.912;30.300;2022-10-17T09:26:44;5.55;;;0.93;;
35917;SDS011;22011;59.912;30.300;2022-10-17T09:29:17;8.63;;;1.38;;
35917;SDS011;22011;59.912;30.300;2022-10-17T09:31:49;3.75;;;1.40;;
35917;SDS011;22011;59.912;30.300;2022-10-17T09:34:21;4.63;;;1.10;;
35917;SDS011;22011;59.912;30.300;2022-10-17T09:36:52;6.35;;;1.10;;
35917;SDS011;22011;59.912;30.300;2022-10-17T09:39:21;3.80;;;1.10;;
35917;SDS011;22011;59.912;30.300;2022-10-17T09:41:52;5.28;;;1.88;;
35917;SDS011;22011;59.912;30.300;2022-10-17T09:44:22;5.60;;;1.45;;
35917;SDS011;22011;59.912;30.300;2022-10-17T09:49:47;7.60;;;1.42;;
35917;SDS011;22011;59.912;30.300;2022-10-17T09:52:17;3.78;;;1.20;;
35917;SDS011;22011;59.912;30.300;2022-10-17T09:54:48;4.25;;;1.20;;
35917;SDS011;22011;59.912;30.300;2022-10-17T09:57:18;4.40;;;1.20;;
35917;SDS011;22011;59.912;30.300;2022-10-17T09:59:47;2.23;;;0.90;;
35917;SDS011;22011;59.912;30.300;2022-10-17T10:02:23;3.53;;;1.20;;
35917;SDS011;22011;59.912;30.300;2022-10-17T10:04:56;2.60;;;1.00;;
35917;SDS011;22011;59.912;30.300;2022-10-17T10:07:28;4.57;;;1.20;;
35917;SDS011;22011;59.912;30.300;2022-10-17T10:09:58;5.32;;;1.73;;
35917;SDS011;22011;59.912;30.300;2022-10-17T10:12:28;5.45;;;3.05;;
35917;SDS011;22011;59.912;30.300;2022-10-17T10:14:57;3.80;;;1.52;;
35917;SDS011;22011;59.912;30.300;2022-10-17T10:17:26;5.85;;;1.60;;
35917;SDS011;22011;59.912;30.300;2022-10-17T10:20:02;4.68;;;1.70;;
35917;SDS011;22011;59.912;30.300;2022-10-17T10:23:05;5.22;;;1.80;;
35917;SDS011;22011;59.912;30.300;2022-10-17T10:25:34;4.55;;;2.05;;
35917;SDS011;22011;59.912;30.300;2022-10-17T10:28:01;2.78;;;1.13;;
35917;SDS011;22011;59.912;30.300;2022-10-17T10:30:36;3.90;;;1.50;;
35917;SDS011;22011;59.912;30.300;2022-10-17T10:33:04;3.28;;;1.10;;
35917;SDS011;22011;59.912;30.300;2022-10-17T10:35:32;3.85;;;1.60;;
35917;SDS011;22011;59.912;30.300;2022-10-17T10:40:35;11.70;;;2.15;;
35917;SDS011;22011;59.912;30.300;2022-10-17T10:43:18;6.18;;;1.42;;
35917;SDS011;22011;59.912;30.300;2022-10-17T10:45:49;4.40;;;1.20;;
35917;SDS011;22011;59.912;30.300;2022-10-17T10:48:19;4.53;;;1.42;;
35917;SDS011;22011;59.912;30.300;2022-10-17T10:53:22;1.92;;;0.77;;
35917;SDS011;22011;59.912;30.300;2022-10-17T10:58:29;4.18;;;1.13;;
35917;SDS011;22011;59.912;30.300;2022-10-17T11:01:05;2.40;;;1.00;;
35917;SDS011;22011;59.912;30.300;2022-10-17T11:03:38;7.18;;;1.75;;
35917;SDS011;22011;59.912;30.300;2022-10-17T11:06:11;3.33;;;1.23;;
35917;SDS011;22011;59.912;30.300;2022-10-17T11:08:43;4.45;;;1.00;;
35917;SDS011;22011;59.912;30.300;2022-10-17T11:11:16;3.80;;;1.38;;
35917;SDS011;22011;59.912;30.300;2022-10-17T11:13:52;4.20;;;1.52;;
35917;SDS011;22011;59.912;30.300;2022-10-17T11:16:27;5.70;;;1.60;;
35917;SDS011;22011;59.912;30.300;2022-10-17T11:19:03;5.50;;;1.40;;
35917;SDS011;22011;59.912;30.300;2022-10-17T11:21:41;3.78;;;1.27;;
35917;SDS011;22011;59.912;30.300;2022-10-17T11:24:14;4.90;;;1.88;;
35917;SDS011;22011;59.912;30.300;2022-10-17T11:26:52;4.25;;;1.33;;
35917;SDS011;22011;59.912;30.300;2022-10-17T11:29:23;3.92;;;1.50;;
35917;SDS011;22011;59.912;30.300;2022-10-17T11:31:55;3.28;;;1.05;;
35917;SDS011;22011;59.912;30.300;2022-10-17T11:34:26;6.50;;;1.60;;
35917;SDS011;22011;59.912;30.300;2022-10-17T11:36:58;9.00;;;2.00;;
35917;SDS011;22011;59.912;30.300;2022-10-17T11:39:34;4.82;;;1.88;;
35917;SDS011;22011;59.912;30.300;2022-10-17T11:42:11;3.95;;;1.80;;
35917;SDS011;22011;59.912;30.300;2022-10-17T11:44:44;6.82;;;1.90;;
35917;SDS011;22011;59.912;30.300;2022-10-17T11:47:13;9.68;;;2.00;;
35917;SDS011;22011;59.912;30.300;2022-10-17T11:49:49;4.30;;;1.17;;
35917;SDS011;22011;59.912;30.300;2022-10-17T11:52:24;5.28;;;1.10;;
35917;SDS011;22011;59.912;30.300;2022-10-17T11:54:58;4.32;;;1.95;;
35917;SDS011;22011;59.912;30.300;2022-10-17T11:57:34;4.68;;;1.02;;
35917;SDS011;22011;59.912;30.300;2022-10-17T12:00:24;5.28;;;1.25;;
35917;SDS011;22011;59.912;30.300;2022-10-17T12:03:04;3.72;;;1.33;;
35917;SDS011;22011;59.912;30.300;2022-10-17T12:05:43;2.25;;;1.23;;
35917;SDS011;22011;59.912;30.300;2022-10-17T12:08:19;4.25;;;2.88;;
35917;SDS011;22011;59.912;30.300;2022-10-17T12:10:52;7.10;;;1.80;;
35917;SDS011;22011;59.912;30.300;2022-10-17T12:19:19;3.67;;;1.50;;
35917;SDS011;22011;59.912;30.300;2022-10-17T12:21:57;6.72;;;2.13;;
35917;SDS011;22011;59.912;30.300;2022-10-17T12:24:32;6.10;;;2.38;;
35917;SDS011;22011;59.912;30.300;2022-10-17T12:27:20;7.53;;;1.90;;
35917;SDS011;22011;59.912;30.300;2022-10-17T12:30:16;2.15;;;0.88;;
35917;SDS011;22011;59.912;30.300;2022-10-17T12:32:55;3.67;;;1.10;;
35917;SDS011;22011;59.912;30.300;2022-10-17T12:35:28;8.25;;;3.65;;
35917;SDS011;22011;59.912;30.300;2022-10-17T12:38:01;6.30;;;2.37;;
35917;SDS011;22011;59.912;30.300;2022-10-17T12:40:54;10.43;;;1.83;;
35917;SDS011;22011;59.912;30.300;2022-10-17T12:46:42;5.75;;;1.73;;
35917;SDS011;22011;59.912;30.300;2022-10-17T12:55:10;8.95;;;1.50;;
35917;SDS011;22011;59.912;30.300;2022-10-17T12:57:40;3.50;;;1.13;;
35917;SDS011;22011;59.912;30.300;2022-10-17T13:00:16;3.03;;;1.55;;
35917;SDS011;22011;59.912;30.300;2022-10-17T13:02:48;3.75;;;1.10;;
35917;SDS011;22011;59.912;30.300;2022-10-17T13:05:21;4.80;;;1.38;;
35917;SDS011;22011;59.912;30.300;2022-10-17T13:07:53;2.75;;;0.98;;
35917;SDS011;22011;59.912;30.300;2022-10-17T13:10:24;4.78;;;1.13;;
35917;SDS011;22011;59.912;30.300;2022-10-17T13:12:59;5.97;;;2.55;;
35917;SDS011;22011;59.912;30.300;2022-10-17T13:15:32;4.07;;;1.40;;
35917;SDS011;22011;59.912;30.300;2022-10-17T13:18:01;5.80;;;1.42;;
35917;SDS011;22011;59.912;30.300;2022-10-17T13:20:30;4.03;;;1.30;;
35917;SDS011;22011;59.912;30.300;2022-10-17T13:22:58;4.60;;;1.80;;
35917;SDS011;22011;59.912;30.300;2022-10-17T13:25:26;5.22;;;1.48;;
35917;SDS011;22011;59.912;30.300;2022-10-17T13:28:06;4.85;;;1.20;;
35917;SDS011;22011;59.912;30.300;2022-10-17T13:30:38;5.60;;;1.27;;
35917;SDS011;22011;59.912;30.300;2022-10-17T13:33:23;3.35;;;1.30;;
35917;SDS011;22011;59.912;30.300;2022-10-17T13:35:56;3.95;;;1.20;;
35917;SDS011;22011;59.912;30.300;2022-10-17T13:38:25;3.10;;;1.10;;
35917;SDS011;22011;59.912;30.300;2022-10-17T13:40:54;5.38;;;1.55;;
35917;SDS011;22011;59.912;30.300;2022-10-17T13:43:22;7.50;;;1.40;;
35917;SDS011;22011;59.912;30.300;2022-10-17T13:45:50;3.50;;;1.33;;
35917;SDS011;22011;59.912;30.300;2022-10-17T13:48:24;9.10;;;1.73;;
35917;SDS011;22011;59.912;30.300;2022-10-17T13:50:55;5.13;;;1.67;;
35917;SDS011;22011;59.912;30.300;2022-10-17T13:53:24;5.35;;;1.40;;
35917;SDS011;22011;59.912;30.300;2022-10-17T13:55:57;3.55;;;1.15;;
35917;SDS011;22011;59.912;30.300;2022-10-17T13:58:29;5.97;;;1.60;;
35917;SDS011;22011;59.912;30.300;2022-10-17T14:01:00;2.75;;;1.15;;
35917;SDS011;22011;59.912;30.300;2022-10-17T14:03:29;7.07;;;1.35;;
35917;SDS011;22011;59.912;30.300;2022-10-17T14:05:58;3.88;;;1.35;;
35917;SDS011;22011;59.912;30.300;2022-10-17T14:08:29;3.78;;;1.83;;
35917;SDS011;22011;59.912;30.300;2022-10-17T14:10:58;5.82;;;1.50;;
35917;SDS011;22011;59.912;30.300;2022-10-17T14:13:26;3.28;;;1.10;;
35917;SDS011;22011;59.912;30.300;2022-10-17T14:16:01;2.65;;;1.23;;
35917;SDS011;22011;59.912;30.300;2022-10-17T14:18:31;3.87;;;0.90;;
35917;SDS011;22011;59.912;30.300;2022-10-17T14:21:02;4.32;;;1.60;;
35917;SDS011;22011;59.912;30.300;2022-10-17T14:23:32;2.67;;;1.35;;
35917;SDS011;22011;59.912;30.300;2022-10-17T14:26:07;3.92;;;1.27;;
35917;SDS011;22011;59.912;30.300;2022-10-17T14:28:37;4.20;;;1.23;;
35917;SDS011;22011;59.912;30.300;2022-10-17T14:31:09;3.22;;;0.95;;
35917;SDS011;22011;59.912;30.300;2022-10-17T14:33:56;4.22;;;1.15;;
35917;SDS011;22011;59.912;30.300;2022-10-17T14:36:29;4.85;;;1.20;;
35917;SDS011;22011;59.912;30.300;2022-10-17T14:39:00;5.40;;;1.00;;
35917;SDS011;22011;59.912;30.300;2022-10-17T14:41:29;1.92;;;0.90;;
35917;SDS011;22011;59.912;30.300;2022-10-17T14:44:00;3.08;;;1.00;;
35917;SDS011;22011;59.912;30.300;2022-10-17T14:46:31;3.50;;;1.20;;
35917;SDS011;22011;59.912;30.300;2022-10-17T14:49:03;5.67;;;1.57;;
35917;SDS011;22011;59.912;30.300;2022-10-17T14:51:32;6.65;;;1.38;;
35917;SDS011;22011;59.912;30.300;2022-10-17T14:54:02;5.18;;;1.50;;
35917;SDS011;22011;59.912;30.300;2022-10-17T14:56:36;4.72;;;1.25;;
35917;SDS011;22011;59.912;30.300;2022-10-17T14:59:07;3.40;;;1.42;;
35917;SDS011;22011;59.912;30.300;2022-10-17T15:01:35;2.95;;;1.33;;
35917;SDS011;22011;59.912;30.300;2022-10-17T15:04:04;3.03;;;1.88;;
35917;SDS011;22011;59.912;30.300;2022-10-17T15:06:35;4.90;;;1.38;;
35917;SDS011;22011;59.912;30.300;2022-10-17T15:09:03;5.40;;;1.42;;
35917;SDS011;22011;59.912;30.300;2022-10-17T15:11:30;2.72;;;1.02;;
35917;SDS011;22011;59.912;30.300;2022-10-17T15:13:58;2.03;;;0.80;;
35917;SDS011;22011;59.912;30.300;2022-10-17T15:16:26;7.00;;;2.60;;
35917;SDS011;22011;59.912;30.300;2022-10-17T15:18:57;10.88;;;2.35;;
35917;SDS011;22011;59.912;30.300;2022-10-17T15:21:26;5.15;;;1.40;;
35917;SDS011;22011;59.912;30.300;2022-10-17T15:23:54;7.30;;;1.33;;
35917;SDS011;22011;59.912;30.300;2022-10-17T15:26:23;4.68;;;1.25;;
35917;SDS011;22011;59.912;30.300;2022-10-17T15:31:20;4.38;;;0.80;;
35917;SDS011;22011;59.912;30.300;2022-10-17T15:33:50;7.05;;;1.50;;
35917;SDS011;22011;59.912;30.300;2022-10-17T15:36:19;6.30;;;1.60;;
35917;SDS011;22011;59.912;30.300;2022-10-17T15:38:50;4.30;;;1.40;;
35917;SDS011;22011;59.912;30.300;2022-10-17T15:41:21;4.57;;;1.33;;
35917;SDS011;22011;59.912;30.300;2022-10-17T15:43:49;3.53;;;1.50;;
35917;SDS011;22011;59.912;30.300;2022-10-17T15:46:16;5.47;;;1.88;;
35917;SDS011;22011;59.912;30.300;2022-10-17T15:48:46;4.15;;;1.30;;
35917;SDS011;22011;59.912;30.300;2022-10-17T15:51:14;4.32;;;1.33;;
35917;SDS011;22011;59.912;30.300;2022-10-17T15:53:41;3.35;;;1.27;;
35917;SDS011;22011;59.912;30.300;2022-10-17T15:56:14;7.40;;;1.17;;